sensor_id;sensor_type;location;lat;lon;timestamp;temperature;humidity
674;DHT22;319;48.764;9.174;2023-04-24T00:00:41;13.50;99.90
674;DHT22;319;48.764;9.174;2023-04-24T00:03:10;13.50;99.90
674;DHT22;319;48.764;9.174;2023-04-24T00:05:38;13.50;99.90
674;DHT22;319;48.764;9.174;2023-04-24T00:08:05;13.60;99.90
674;DHT22;319;48.764;9.174;2023-04-24T00:10:34;13.60;99.90
674;DHT22;319;48.764;9.174;2023-04-24T00:13:01;13.70;99.90
674;DHT22;319;48.764;9.174;2023-04-24T00:15:27;13.70;99.90
674;DHT22;319;48.764;9.174;2023-04-24T00:17:54;13.60;99.90
674;DHT22;319;48.764;9.174;2023-04-24T00:20:21;13.70;99.90
674;DHT22;319;48.764;9.174;2023-04-24T00:22:48;13.70;99.90
674;DHT22;319;48.764;9.174;2023-04-24T00:25:15;13.70;99.90
674;DHT22;319;48.764;9.174;2023-04-24T00:27:43;13.70;99.90
674;DHT22;319;48.764;9.174;2023-04-24T00:30:11;13.70;99.90
674;DHT22;319;48.764;9.174;2023-04-24T00:32:38;13.80;99.90
674;DHT22;319;48.764;9.174;2023-04-24T00:35:05;13.90;99.90
674;DHT22;319;48.764;9.174;2023-04-24T00:37:32;13.90;99.90
674;DHT22;319;48.764;9.174;2023-04-24T00:39:59;13.90;99.90
674;DHT22;319;48.764;9.174;2023-04-24T00:42:26;13.90;99.90
674;DHT22;319;48.764;9.174;2023-04-24T00:44:56;13.90;99.90
674;DHT22;319;48.764;9.174;2023-04-24T00:47:23;14.00;99.90
674;DHT22;319;48.764;9.174;2023-04-24T00:49:51;14.00;99.90
674;DHT22;319;48.764;9.174;2023-04-24T00:52:18;14.10;99.90
674;DHT22;319;48.764;9.174;2023-04-24T00:54:46;14.20;99.90
674;DHT22;319;48.764;9.174;2023-04-24T00:57:13;14.10;99.90
674;DHT22;319;48.764;9.174;2023-04-24T00:59:41;14.20;99.90
674;DHT22;319;48.764;9.174;2023-04-24T01:02:09;14.10;99.90
674;DHT22;319;48.764;9.174;2023-04-24T01:04:37;14.10;99.90
674;DHT22;319;48.764;9.174;2023-04-24T01:07:04;14.20;99.90
674;DHT22;319;48.764;9.174;2023-04-24T01:09:36;14.10;99.90
674;DHT22;319;48.764;9.174;2023-04-24T01:12:03;14.10;99.90
674;DHT22;319;48.764;9.174;2023-04-24T01:14:31;14.10;99.90
674;DHT22;319;48.764;9.174;2023-04-24T01:16:58;14.00;99.90
674;DHT22;319;48.764;9.174;2023-04-24T01:19:27;14.00;99.90
674;DHT22;319;48.764;9.174;2023-04-24T01:21:57;14.00;99.90
674;DHT22;319;48.764;9.174;2023-04-24T01:24:26;14.00;99.90
674;DHT22;319;48.764;9.174;2023-04-24T01:26:53;14.00;99.90
674;DHT22;319;48.764;9.174;2023-04-24T01:29:20;14.00;99.90
674;DHT22;319;48.764;9.174;2023-04-24T01:31:47;14.00;99.90
674;DHT22;319;48.764;9.174;2023-04-24T01:34:15;14.00;99.90
674;DHT22;319;48.764;9.174;2023-04-24T01:36:43;13.90;99.90
674;DHT22;319;48.764;9.174;2023-04-24T01:39:12;13.90;99.90
674;DHT22;319;48.764;9.174;2023-04-24T01:41:40;13.80;99.90
674;DHT22;319;48.764;9.174;2023-04-24T01:44:07;13.70;99.90
674;DHT22;319;48.764;9.174;2023-04-24T01:46:34;13.60;99.90
674;DHT22;319;48.764;9.174;2023-04-24T01:49:02;13.60;99.90
674;DHT22;319;48.764;9.174;2023-04-24T01:51:29;13.70;99.90
674;DHT22;319;48.764;9.174;2023-04-24T01:53:57;13.70;99.90
674;DHT22;319;48.764;9.174;2023-04-24T01:56:24;13.70;99.90
674;DHT22;319;48.764;9.174;2023-04-24T01:58:54;13.60;99.90
674;DHT22;319;48.764;9.174;2023-04-24T02:01:23;13.60;99.90
674;DHT22;319;48.764;9.174;2023-04-24T02:03:51;13.60;99.90
674;DHT22;319;48.764;9.174;2023-04-24T02:06:18;13.60;99.90
674;DHT22;319;48.764;9.174;2023-04-24T02:08:45;13.60;99.90
674;DHT22;319;48.764;9.174;2023-04-24T02:11:12;13.50;99.90
674;DHT22;319;48.764;9.174;2023-04-24T02:13:38;13.50;99.90
674;DHT22;319;48.764;9.174;2023-04-24T02:16:07;13.50;99.90
674;DHT22;319;48.764;9.174;2023-04-24T02:18:33;13.40;99.90
674;DHT22;319;48.764;9.174;2023-04-24T02:21:00;13.40;99.90
674;DHT22;319;48.764;9.174;2023-04-24T02:23:27;13.30;99.90
674;DHT22;319;48.764;9.174;2023-04-24T02:25:54;13.30;99.90
674;DHT22;319;48.764;9.174;2023-04-24T02:28:21;13.30;99.90
674;DHT22;319;48.764;9.174;2023-04-24T02:30:48;13.30;99.90
674;DHT22;319;48.764;9.174;2023-04-24T02:33:16;13.20;99.90
674;DHT22;319;48.764;9.174;2023-04-24T02:35:43;13.20;99.90
674;DHT22;319;48.764;9.174;2023-04-24T02:38:10;13.10;99.90
674;DHT22;319;48.764;9.174;2023-04-24T02:40:37;13.20;99.90
674;DHT22;319;48.764;9.174;2023-04-24T02:43:04;13.30;99.90
674;DHT22;319;48.764;9.174;2023-04-24T02:45:31;13.30;99.90
674;DHT22;319;48.764;9.174;2023-04-24T02:48:00;13.40;99.90
674;DHT22;319;48.764;9.174;2023-04-24T02:50:28;13.40;99.90
674;DHT22;319;48.764;9.174;2023-04-24T02:52:55;13.40;99.90
674;DHT22;319;48.764;9.174;2023-04-24T02:55:22;13.40;99.90
674;DHT22;319;48.764;9.174;2023-04-24T02:57:49;13.40;99.90
674;DHT22;319;48.764;9.174;2023-04-24T03:00:16;13.40;99.90
674;DHT22;319;48.764;9.174;2023-04-24T03:02:43;13.30;99.90
674;DHT22;319;48.764;9.174;2023-04-24T03:05:10;13.20;99.90
674;DHT22;319;48.764;9.174;2023-04-24T03:07:39;13.10;99.90
674;DHT22;319;48.764;9.174;2023-04-24T03:10:07;13.10;99.90
674;DHT22;319;48.764;9.174;2023-04-24T03:12:34;13.00;99.90
674;DHT22;319;48.764;9.174;2023-04-24T03:15:01;12.90;99.90
674;DHT22;319;48.764;9.174;2023-04-24T03:17:28;12.90;99.90
674;DHT22;319;48.764;9.174;2023-04-24T03:19:55;12.80;99.90
674;DHT22;319;48.764;9.174;2023-04-24T03:22:22;12.80;99.90
674;DHT22;319;48.764;9.174;2023-04-24T03:24:50;12.70;99.90
674;DHT22;319;48.764;9.174;2023-04-24T03:27:17;12.80;99.90
674;DHT22;319;48.764;9.174;2023-04-24T03:29:44;12.80;99.90
674;DHT22;319;48.764;9.174;2023-04-24T03:32:11;12.80;99.90
674;DHT22;319;48.764;9.174;2023-04-24T03:34:38;12.80;99.90
674;DHT22;319;48.764;9.174;2023-04-24T03:37:05;12.70;99.90
674;DHT22;319;48.764;9.174;2023-04-24T03:39:31;12.80;99.90
674;DHT22;319;48.764;9.174;2023-04-24T03:42:00;12.80;99.90
674;DHT22;319;48.764;9.174;2023-04-24T03:44:27;12.90;99.90
674;DHT22;319;48.764;9.174;2023-04-24T03:46:54;13.00;99.90
674;DHT22;319;48.764;9.174;2023-04-24T03:49:21;13.00;99.90
674;DHT22;319;48.764;9.174;2023-04-24T03:51:48;13.10;99.90
674;DHT22;319;48.764;9.174;2023-04-24T03:54:15;13.10;99.90
674;DHT22;319;48.764;9.174;2023-04-24T03:56:42;13.00;99.90
674;DHT22;319;48.764;9.174;2023-04-24T03:59:10;12.80;99.90
674;DHT22;319;48.764;9.174;2023-04-24T04:01:40;12.70;99.90
674;DHT22;319;48.764;9.174;2023-04-24T04:04:07;12.60;99.90
674;DHT22;319;48.764;9.174;2023-04-24T04:06:34;12.70;99.90
674;DHT22;319;48.764;9.174;2023-04-24T04:09:01;12.60;99.90
674;DHT22;319;48.764;9.174;2023-04-24T04:11:29;12.50;99.90
674;DHT22;319;48.764;9.174;2023-04-24T04:13:56;12.50;99.90
674;DHT22;319;48.764;9.174;2023-04-24T04:16:41;12.40;99.90
674;DHT22;319;48.764;9.174;2023-04-24T04:19:12;12.50;99.90
674;DHT22;319;48.764;9.174;2023-04-24T04:21:52;12.50;99.90
674;DHT22;319;48.764;9.174;2023-04-24T04:27:22;12.70;99.90
674;DHT22;319;48.764;9.174;2023-04-24T04:30:06;12.60;99.90
674;DHT22;319;48.764;9.174;2023-04-24T04:33:05;12.60;99.90
674;DHT22;319;48.764;9.174;2023-04-24T04:35:43;12.50;99.90
674;DHT22;319;48.764;9.174;2023-04-24T04:38:09;12.40;99.90
674;DHT22;319;48.764;9.174;2023-04-24T04:40:36;12.40;99.90
674;DHT22;319;48.764;9.174;2023-04-24T04:43:03;12.40;99.90
674;DHT22;319;48.764;9.174;2023-04-24T04:45:31;12.40;99.90
674;DHT22;319;48.764;9.174;2023-04-24T04:48:01;12.30;99.90
674;DHT22;319;48.764;9.174;2023-04-24T04:50:29;12.30;99.90
674;DHT22;319;48.764;9.174;2023-04-24T04:52:56;12.30;99.90
674;DHT22;319;48.764;9.174;2023-04-24T04:55:22;12.30;99.90
674;DHT22;319;48.764;9.174;2023-04-24T04:57:50;12.30;99.90
674;DHT22;319;48.764;9.174;2023-04-24T05:00:17;12.30;99.90
674;DHT22;319;48.764;9.174;2023-04-24T05:02:44;12.20;99.90
674;DHT22;319;48.764;9.174;2023-04-24T05:05:13;12.10;99.90
674;DHT22;319;48.764;9.174;2023-04-24T05:07:40;12.00;99.90
674;DHT22;319;48.764;9.174;2023-04-24T05:10:08;12.00;99.90
674;DHT22;319;48.764;9.174;2023-04-24T05:12:34;12.00;99.90
674;DHT22;319;48.764;9.174;2023-04-24T05:15:02;12.00;99.90
674;DHT22;319;48.764;9.174;2023-04-24T05:17:29;12.10;99.90
674;DHT22;319;48.764;9.174;2023-04-24T05:19:56;12.10;99.90
674;DHT22;319;48.764;9.174;2023-04-24T05:22:24;12.00;99.90
674;DHT22;319;48.764;9.174;2023-04-24T05:24:51;12.00;99.90
674;DHT22;319;48.764;9.174;2023-04-24T05:27:19;11.90;99.90
674;DHT22;319;48.764;9.174;2023-04-24T05:29:46;11.90;99.90
674;DHT22;319;48.764;9.174;2023-04-24T05:32:13;12.00;99.90
674;DHT22;319;48.764;9.174;2023-04-24T05:34:39;12.10;99.90
674;DHT22;319;48.764;9.174;2023-04-24T05:37:06;12.10;99.90
674;DHT22;319;48.764;9.174;2023-04-24T05:39:37;12.20;99.90
674;DHT22;319;48.764;9.174;2023-04-24T05:42:04;12.20;99.90
674;DHT22;319;48.764;9.174;2023-04-24T05:44:31;12.30;99.90
674;DHT22;319;48.764;9.174;2023-04-24T05:46:57;12.30;99.90
674;DHT22;319;48.764;9.174;2023-04-24T05:49:24;12.30;99.90
674;DHT22;319;48.764;9.174;2023-04-24T05:51:51;12.40;99.90
674;DHT22;319;48.764;9.174;2023-04-24T05:54:18;12.60;99.90
674;DHT22;319;48.764;9.174;2023-04-24T05:56:47;12.70;99.90
674;DHT22;319;48.764;9.174;2023-04-24T05:59:13;12.80;99.90
674;DHT22;319;48.764;9.174;2023-04-24T06:01:40;12.90;99.90
674;DHT22;319;48.764;9.174;2023-04-24T06:04:08;13.00;99.90
674;DHT22;319;48.764;9.174;2023-04-24T06:06:38;13.00;99.90
674;DHT22;319;48.764;9.174;2023-04-24T06:09:05;13.00;99.90
674;DHT22;319;48.764;9.174;2023-04-24T06:11:32;13.00;99.90
674;DHT22;319;48.764;9.174;2023-04-24T06:14:00;13.20;99.90
674;DHT22;319;48.764;9.174;2023-04-24T06:16:27;13.20;99.90
674;DHT22;319;48.764;9.174;2023-04-24T06:18:54;13.30;99.90
674;DHT22;319;48.764;9.174;2023-04-24T06:21:21;13.40;99.90
674;DHT22;319;48.764;9.174;2023-04-24T06:23:48;13.40;99.90
674;DHT22;319;48.764;9.174;2023-04-24T06:26:15;13.50;99.90
674;DHT22;319;48.764;9.174;2023-04-24T06:28:42;13.60;99.90
674;DHT22;319;48.764;9.174;2023-04-24T06:31:10;13.70;99.90
674;DHT22;319;48.764;9.174;2023-04-24T06:33:37;13.80;99.90
674;DHT22;319;48.764;9.174;2023-04-24T06:36:04;14.00;99.70
674;DHT22;319;48.764;9.174;2023-04-24T06:38:31;14.20;99.90
674;DHT22;319;48.764;9.174;2023-04-24T06:40:59;14.70;99.20
674;DHT22;319;48.764;9.174;2023-04-24T06:43:26;15.50;98.00
674;DHT22;319;48.764;9.174;2023-04-24T06:45:53;16.80;95.50
674;DHT22;319;48.764;9.174;2023-04-24T06:48:21;17.90;92.50
674;DHT22;319;48.764;9.174;2023-04-24T06:50:48;19.00;90.80
674;DHT22;319;48.764;9.174;2023-04-24T06:53:15;20.40;86.70
674;DHT22;319;48.764;9.174;2023-04-24T06:55:42;21.10;82.20
674;DHT22;319;48.764;9.174;2023-04-24T06:58:10;22.00;78.30
674;DHT22;319;48.764;9.174;2023-04-24T07:00:37;22.70;74.40
674;DHT22;319;48.764;9.174;2023-04-24T07:03:04;23.10;70.00
674;DHT22;319;48.764;9.174;2023-04-24T07:05:33;23.10;68.60
674;DHT22;319;48.764;9.174;2023-04-24T07:08:00;22.10;68.60
674;DHT22;319;48.764;9.174;2023-04-24T07:10:27;21.40;71.10
674;DHT22;319;48.764;9.174;2023-04-24T07:12:54;21.10;74.40
674;DHT22;319;48.764;9.174;2023-04-24T07:15:22;20.70;73.70
674;DHT22;319;48.764;9.174;2023-04-24T07:17:49;19.70;74.60
674;DHT22;319;48.764;9.174;2023-04-24T07:20:16;18.80;78.30
674;DHT22;319;48.764;9.174;2023-04-24T07:22:45;18.30;81.00
674;DHT22;319;48.764;9.174;2023-04-24T07:25:12;17.50;83.00
674;DHT22;319;48.764;9.174;2023-04-24T07:27:38;17.10;86.40
674;DHT22;319;48.764;9.174;2023-04-24T07:30:07;16.60;86.40
674;DHT22;319;48.764;9.174;2023-04-24T07:32:34;16.10;86.10
674;DHT22;319;48.764;9.174;2023-04-24T07:35:01;15.90;88.10
674;DHT22;319;48.764;9.174;2023-04-24T07:37:29;15.80;88.20
674;DHT22;319;48.764;9.174;2023-04-24T07:39:57;15.70;86.50
674;DHT22;319;48.764;9.174;2023-04-24T07:42:24;15.90;86.60
674;DHT22;319;48.764;9.174;2023-04-24T07:44:51;16.60;85.70
674;DHT22;319;48.764;9.174;2023-04-24T07:47:18;17.50;82.20
674;DHT22;319;48.764;9.174;2023-04-24T07:49:45;17.70;79.00
674;DHT22;319;48.764;9.174;2023-04-24T07:52:11;18.40;78.90
674;DHT22;319;48.764;9.174;2023-04-24T07:54:38;19.10;75.90
674;DHT22;319;48.764;9.174;2023-04-24T07:57:07;19.60;72.60
674;DHT22;319;48.764;9.174;2023-04-24T07:59:33;19.50;70.50
674;DHT22;319;48.764;9.174;2023-04-24T08:02:00;19.10;70.20
674;DHT22;319;48.764;9.174;2023-04-24T08:04:28;18.80;69.90
674;DHT22;319;48.764;9.174;2023-04-24T08:06:55;18.80;70.30
674;DHT22;319;48.764;9.174;2023-04-24T08:09:21;18.30;71.00
674;DHT22;319;48.764;9.174;2023-04-24T08:11:48;18.10;71.60
674;DHT22;319;48.764;9.174;2023-04-24T08:14:17;18.10;71.20
674;DHT22;319;48.764;9.174;2023-04-24T08:16:44;18.60;70.70
674;DHT22;319;48.764;9.174;2023-04-24T08:19:11;18.60;69.20
674;DHT22;319;48.764;9.174;2023-04-24T08:21:39;18.50;69.50
674;DHT22;319;48.764;9.174;2023-04-24T08:24:06;18.40;69.50
674;DHT22;319;48.764;9.174;2023-04-24T08:26:33;18.20;69.70
674;DHT22;319;48.764;9.174;2023-04-24T08:29:00;18.10;70.20
674;DHT22;319;48.764;9.174;2023-04-24T08:31:44;18.10;70.70
674;DHT22;319;48.764;9.174;2023-04-24T08:34:14;18.40;70.70
674;DHT22;319;48.764;9.174;2023-04-24T08:36:41;19.10;70.60
674;DHT22;319;48.764;9.174;2023-04-24T08:39:08;19.60;66.20
674;DHT22;319;48.764;9.174;2023-04-24T08:41:35;20.30;65.10
674;DHT22;319;48.764;9.174;2023-04-24T08:44:04;20.00;62.80
674;DHT22;319;48.764;9.174;2023-04-24T08:46:33;19.70;63.50
674;DHT22;319;48.764;9.174;2023-04-24T08:49:01;19.10;64.30
674;DHT22;319;48.764;9.174;2023-04-24T08:51:31;18.40;66.50
674;DHT22;319;48.764;9.174;2023-04-24T08:53:59;17.70;68.90
674;DHT22;319;48.764;9.174;2023-04-24T08:56:28;17.20;72.30
674;DHT22;319;48.764;9.174;2023-04-24T08:58:57;16.80;75.00
674;DHT22;319;48.764;9.174;2023-04-24T09:01:25;16.80;75.60
674;DHT22;319;48.764;9.174;2023-04-24T09:03:55;17.40;76.50
674;DHT22;319;48.764;9.174;2023-04-24T09:06:27;17.90;74.20
674;DHT22;319;48.764;9.174;2023-04-24T09:08:55;17.90;73.50
674;DHT22;319;48.764;9.174;2023-04-24T09:11:24;17.50;73.00
674;DHT22;319;48.764;9.174;2023-04-24T09:13:54;17.20;74.40
674;DHT22;319;48.764;9.174;2023-04-24T09:16:24;16.90;75.20
674;DHT22;319;48.764;9.174;2023-04-24T09:18:52;16.60;75.50
674;DHT22;319;48.764;9.174;2023-04-24T09:21:20;16.30;76.50
674;DHT22;319;48.764;9.174;2023-04-24T09:23:57;16.00;77.50
674;DHT22;319;48.764;9.174;2023-04-24T09:26:25;15.70;80.00
674;DHT22;319;48.764;9.174;2023-04-24T09:28:53;15.30;82.60
674;DHT22;319;48.764;9.174;2023-04-24T09:31:20;15.30;83.60
674;DHT22;319;48.764;9.174;2023-04-24T09:33:54;15.20;84.90
674;DHT22;319;48.764;9.174;2023-04-24T09:36:27;14.90;86.40
674;DHT22;319;48.764;9.174;2023-04-24T09:39:00;14.70;87.90
674;DHT22;319;48.764;9.174;2023-04-24T09:41:28;15.00;89.00
674;DHT22;319;48.764;9.174;2023-04-24T09:43:57;15.10;87.80
674;DHT22;319;48.764;9.174;2023-04-24T09:46:32;15.30;87.40
674;DHT22;319;48.764;9.174;2023-04-24T09:49:12;15.80;85.50
674;DHT22;319;48.764;9.174;2023-04-24T09:51:40;16.00;82.80
674;DHT22;319;48.764;9.174;2023-04-24T09:54:16;15.80;80.30
674;DHT22;319;48.764;9.174;2023-04-24T09:56:51;15.80;81.30
674;DHT22;319;48.764;9.174;2023-04-24T09:59:32;15.70;80.30
674;DHT22;319;48.764;9.174;2023-04-24T10:01:59;15.20;82.00
674;DHT22;319;48.764;9.174;2023-04-24T10:04:28;15.20;81.60
674;DHT22;319;48.764;9.174;2023-04-24T10:06:56;15.20;81.70
674;DHT22;319;48.764;9.174;2023-04-24T10:09:26;15.20;80.50
674;DHT22;319;48.764;9.174;2023-04-24T10:11:54;15.10;78.30
674;DHT22;319;48.764;9.174;2023-04-24T10:14:23;15.40;77.80
674;DHT22;319;48.764;9.174;2023-04-24T10:16:53;15.60;75.70
674;DHT22;319;48.764;9.174;2023-04-24T10:19:25;15.80;73.40
674;DHT22;319;48.764;9.174;2023-04-24T10:21:52;15.90;72.80
674;DHT22;319;48.764;9.174;2023-04-24T10:24:21;16.00;72.00
674;DHT22;319;48.764;9.174;2023-04-24T10:26:51;16.00;72.00
674;DHT22;319;48.764;9.174;2023-04-24T10:29:21;16.00;70.60
674;DHT22;319;48.764;9.174;2023-04-24T10:31:48;16.00;69.80
674;DHT22;319;48.764;9.174;2023-04-24T10:34:18;16.20;70.20
674;DHT22;319;48.764;9.174;2023-04-24T10:36:51;16.20;68.50
674;DHT22;319;48.764;9.174;2023-04-24T10:39:19;16.30;68.30
674;DHT22;319;48.764;9.174;2023-04-24T10:41:59;16.10;68.70
674;DHT22;319;48.764;9.174;2023-04-24T10:44:36;16.10;69.70
674;DHT22;319;48.764;9.174;2023-04-24T10:47:03;16.00;70.40
674;DHT22;319;48.764;9.174;2023-04-24T10:49:31;16.00;70.90
674;DHT22;319;48.764;9.174;2023-04-24T10:52:01;15.90;70.80
674;DHT22;319;48.764;9.174;2023-04-24T10:54:33;15.80;71.80
674;DHT22;319;48.764;9.174;2023-04-24T10:57:27;15.70;72.40
674;DHT22;319;48.764;9.174;2023-04-24T11:00:16;15.70;72.90
674;DHT22;319;48.764;9.174;2023-04-24T11:02:46;15.70;73.10
674;DHT22;319;48.764;9.174;2023-04-24T11:05:19;15.90;73.20
674;DHT22;319;48.764;9.174;2023-04-24T11:08:12;16.00;73.30
674;DHT22;319;48.764;9.174;2023-04-24T11:10:44;15.90;72.70
674;DHT22;319;48.764;9.174;2023-04-24T11:13:15;15.80;73.60
674;DHT22;319;48.764;9.174;2023-04-24T11:15:43;15.60;73.70
674;DHT22;319;48.764;9.174;2023-04-24T11:18:13;15.50;74.50
674;DHT22;319;48.764;9.174;2023-04-24T11:20:42;15.40;74.30
674;DHT22;319;48.764;9.174;2023-04-24T11:23:12;15.40;74.10
674;DHT22;319;48.764;9.174;2023-04-24T11:25:40;15.30;73.50
674;DHT22;319;48.764;9.174;2023-04-24T11:28:07;15.20;74.10
674;DHT22;319;48.764;9.174;2023-04-24T11:30:42;15.50;74.80
674;DHT22;319;48.764;9.174;2023-04-24T11:33:09;15.70;74.10
674;DHT22;319;48.764;9.174;2023-04-24T11:35:39;16.00;73.60
674;DHT22;319;48.764;9.174;2023-04-24T11:38:07;16.40;72.60
674;DHT22;319;48.764;9.174;2023-04-24T11:40:34;16.50;70.50
674;DHT22;319;48.764;9.174;2023-04-24T11:43:01;16.90;70.50
674;DHT22;319;48.764;9.174;2023-04-24T11:45:30;16.80;70.00
674;DHT22;319;48.764;9.174;2023-04-24T11:47:58;16.70;70.60
674;DHT22;319;48.764;9.174;2023-04-24T11:50:26;16.50;70.90
674;DHT22;319;48.764;9.174;2023-04-24T11:53:02;16.30;71.90
674;DHT22;319;48.764;9.174;2023-04-24T11:55:38;16.10;71.90
674;DHT22;319;48.764;9.174;2023-04-24T11:58:05;15.70;73.30
674;DHT22;319;48.764;9.174;2023-04-24T12:00:43;15.40;76.20
674;DHT22;319;48.764;9.174;2023-04-24T12:03:18;15.40;77.50
674;DHT22;319;48.764;9.174;2023-04-24T12:05:45;15.60;76.00
674;DHT22;319;48.764;9.174;2023-04-24T12:08:33;15.90;75.60
674;DHT22;319;48.764;9.174;2023-04-24T12:11:02;16.30;73.90
674;DHT22;319;48.764;9.174;2023-04-24T12:13:29;16.70;71.70
674;DHT22;319;48.764;9.174;2023-04-24T12:15:57;16.50;70.70
674;DHT22;319;48.764;9.174;2023-04-24T12:18:26;16.70;71.10
674;DHT22;319;48.764;9.174;2023-04-24T12:20:52;16.70;70.80
674;DHT22;319;48.764;9.174;2023-04-24T12:23:33;16.30;71.40
674;DHT22;319;48.764;9.174;2023-04-24T12:26:03;16.10;72.20
674;DHT22;319;48.764;9.174;2023-04-24T12:28:35;15.80;73.30
674;DHT22;319;48.764;9.174;2023-04-24T12:31:02;15.60;73.20
674;DHT22;319;48.764;9.174;2023-04-24T12:33:32;15.60;73.20
674;DHT22;319;48.764;9.174;2023-04-24T12:36:00;15.60;72.20
674;DHT22;319;48.764;9.174;2023-04-24T12:38:28;15.30;72.40
674;DHT22;319;48.764;9.174;2023-04-24T12:41:03;15.40;73.20
674;DHT22;319;48.764;9.174;2023-04-24T12:43:30;15.40;73.00
674;DHT22;319;48.764;9.174;2023-04-24T12:45:58;15.50;72.90
674;DHT22;319;48.764;9.174;2023-04-24T12:48:25;15.60;72.30
674;DHT22;319;48.764;9.174;2023-04-24T12:50:53;15.90;71.90
674;DHT22;319;48.764;9.174;2023-04-24T12:53:22;16.00;71.80
674;DHT22;319;48.764;9.174;2023-04-24T12:55:49;16.20;71.50
674;DHT22;319;48.764;9.174;2023-04-24T12:58:19;16.40;71.50
674;DHT22;319;48.764;9.174;2023-04-24T13:00:46;16.30;71.90
674;DHT22;319;48.764;9.174;2023-04-24T13:03:14;16.30;73.10
674;DHT22;319;48.764;9.174;2023-04-24T13:05:42;15.90;73.60
674;DHT22;319;48.764;9.174;2023-04-24T13:08:10;15.70;74.60
674;DHT22;319;48.764;9.174;2023-04-24T13:10:38;15.40;76.40
674;DHT22;319;48.764;9.174;2023-04-24T13:13:05;15.00;83.00
674;DHT22;319;48.764;9.174;2023-04-24T13:15:32;14.90;88.80
674;DHT22;319;48.764;9.174;2023-04-24T13:17:59;14.80;91.00
674;DHT22;319;48.764;9.174;2023-04-24T13:20:26;14.80;90.30
674;DHT22;319;48.764;9.174;2023-04-24T13:22:53;14.70;90.10
674;DHT22;319;48.764;9.174;2023-04-24T13:25:25;14.90;90.50
674;DHT22;319;48.764;9.174;2023-04-24T13:27:52;15.10;90.70
674;DHT22;319;48.764;9.174;2023-04-24T13:30:22;15.40;90.30
674;DHT22;319;48.764;9.174;2023-04-24T13:32:49;15.50;89.40
674;DHT22;319;48.764;9.174;2023-04-24T13:35:16;15.50;89.30
674;DHT22;319;48.764;9.174;2023-04-24T13:37:45;15.70;88.30
674;DHT22;319;48.764;9.174;2023-04-24T13:40:14;15.80;86.50
674;DHT22;319;48.764;9.174;2023-04-24T13:42:43;15.60;85.60
674;DHT22;319;48.764;9.174;2023-04-24T13:45:10;15.50;87.20
674;DHT22;319;48.764;9.174;2023-04-24T13:47:38;15.50;87.40
674;DHT22;319;48.764;9.174;2023-04-24T13:50:07;15.40;89.30
674;DHT22;319;48.764;9.174;2023-04-24T13:52:34;15.10;89.20
674;DHT22;319;48.764;9.174;2023-04-24T13:55:01;14.60;91.50
674;DHT22;319;48.764;9.174;2023-04-24T13:57:28;14.00;92.90
674;DHT22;319;48.764;9.174;2023-04-24T13:59:58;13.80;94.20
674;DHT22;319;48.764;9.174;2023-04-24T14:02:28;13.50;94.90
674;DHT22;319;48.764;9.174;2023-04-24T14:04:55;13.40;95.70
674;DHT22;319;48.764;9.174;2023-04-24T14:07:22;13.30;96.30
674;DHT22;319;48.764;9.174;2023-04-24T14:09:49;13.40;96.90
674;DHT22;319;48.764;9.174;2023-04-24T14:12:16;13.60;97.10
674;DHT22;319;48.764;9.174;2023-04-24T14:14:45;13.70;97.00
674;DHT22;319;48.764;9.174;2023-04-24T14:17:14;13.80;96.30
674;DHT22;319;48.764;9.174;2023-04-24T14:19:40;14.00;95.90
674;DHT22;319;48.764;9.174;2023-04-24T14:22:07;14.00;95.60
674;DHT22;319;48.764;9.174;2023-04-24T14:24:34;13.70;96.00
674;DHT22;319;48.764;9.174;2023-04-24T14:27:01;13.80;96.20
674;DHT22;319;48.764;9.174;2023-04-24T14:29:28;13.90;96.20
674;DHT22;319;48.764;9.174;2023-04-24T14:31:55;14.00;94.90
674;DHT22;319;48.764;9.174;2023-04-24T14:34:23;14.00;94.60
674;DHT22;319;48.764;9.174;2023-04-24T14:36:50;14.00;94.20
674;DHT22;319;48.764;9.174;2023-04-24T14:39:17;14.10;94.00
674;DHT22;319;48.764;9.174;2023-04-24T14:41:44;14.20;94.10
674;DHT22;319;48.764;9.174;2023-04-24T14:44:11;14.30;94.10
674;DHT22;319;48.764;9.174;2023-04-24T14:46:38;14.20;93.60
674;DHT22;319;48.764;9.174;2023-04-24T14:49:04;14.20;93.20
674;DHT22;319;48.764;9.174;2023-04-24T14:51:36;14.10;93.60
674;DHT22;319;48.764;9.174;2023-04-24T14:54:03;14.20;93.70
674;DHT22;319;48.764;9.174;2023-04-24T14:56:30;14.40;93.80
674;DHT22;319;48.764;9.174;2023-04-24T14:58:57;14.50;93.30
674;DHT22;319;48.764;9.174;2023-04-24T15:01:24;14.60;92.90
674;DHT22;319;48.764;9.174;2023-04-24T15:03:51;14.80;92.50
674;DHT22;319;48.764;9.174;2023-04-24T15:06:18;14.80;92.00
674;DHT22;319;48.764;9.174;2023-04-24T15:08:56;14.90;91.60
674;DHT22;319;48.764;9.174;2023-04-24T15:11:35;14.80;91.70
674;DHT22;319;48.764;9.174;2023-04-24T15:14:02;14.60;91.50
674;DHT22;319;48.764;9.174;2023-04-24T15:16:29;14.50;91.70
674;DHT22;319;48.764;9.174;2023-04-24T15:18:57;14.50;92.10
674;DHT22;319;48.764;9.174;2023-04-24T15:21:24;14.40;91.40
674;DHT22;319;48.764;9.174;2023-04-24T15:23:52;14.50;91.60
674;DHT22;319;48.764;9.174;2023-04-24T15:26:19;14.50;91.30
674;DHT22;319;48.764;9.174;2023-04-24T15:28:46;14.60;91.30
674;DHT22;319;48.764;9.174;2023-04-24T15:31:13;14.60;90.70
674;DHT22;319;48.764;9.174;2023-04-24T15:33:40;14.60;90.70
674;DHT22;319;48.764;9.174;2023-04-24T15:36:08;14.60;90.50
674;DHT22;319;48.764;9.174;2023-04-24T15:38:35;14.60;90.80
674;DHT22;319;48.764;9.174;2023-04-24T15:41:06;14.50;91.00
674;DHT22;319;48.764;9.174;2023-04-24T15:43:33;14.50;91.50
674;DHT22;319;48.764;9.174;2023-04-24T15:46:00;14.20;94.30
674;DHT22;319;48.764;9.174;2023-04-24T15:48:27;13.90;95.00
674;DHT22;319;48.764;9.174;2023-04-24T15:50:54;13.60;95.90
674;DHT22;319;48.764;9.174;2023-04-24T15:53:21;13.50;96.90
674;DHT22;319;48.764;9.174;2023-04-24T15:55:48;13.40;97.30
674;DHT22;319;48.764;9.174;2023-04-24T15:58:18;13.40;97.00
674;DHT22;319;48.764;9.174;2023-04-24T16:00:46;13.40;97.70
674;DHT22;319;48.764;9.174;2023-04-24T16:03:13;13.30;97.20
674;DHT22;319;48.764;9.174;2023-04-24T16:05:40;13.30;97.40
674;DHT22;319;48.764;9.174;2023-04-24T16:08:07;13.20;97.50
674;DHT22;319;48.764;9.174;2023-04-24T16:10:35;13.30;97.50
674;DHT22;319;48.764;9.174;2023-04-24T16:13:02;13.30;97.40
674;DHT22;319;48.764;9.174;2023-04-24T16:15:31;13.10;97.30
674;DHT22;319;48.764;9.174;2023-04-24T16:17:59;13.20;98.20
674;DHT22;319;48.764;9.174;2023-04-24T16:20:26;13.10;98.50
674;DHT22;319;48.764;9.174;2023-04-24T16:22:53;13.20;98.80
674;DHT22;319;48.764;9.174;2023-04-24T16:25:20;13.20;98.30
674;DHT22;319;48.764;9.174;2023-04-24T16:27:47;13.20;98.20
674;DHT22;319;48.764;9.174;2023-04-24T16:30:14;13.30;98.60
674;DHT22;319;48.764;9.174;2023-04-24T16:32:42;13.30;98.30
674;DHT22;319;48.764;9.174;2023-04-24T16:35:09;13.40;97.50
674;DHT22;319;48.764;9.174;2023-04-24T16:37:36;13.50;97.30
674;DHT22;319;48.764;9.174;2023-04-24T16:40:04;13.60;97.30
674;DHT22;319;48.764;9.174;2023-04-24T16:42:35;13.70;96.80
674;DHT22;319;48.764;9.174;2023-04-24T16:45:07;13.80;96.10